Time;durP1;ratioP1;P1;durP2;ratioP2;P2;SDS_P1;SDS_P2;PMS_P1;PMS_P2;Temp;Humidity;BMP_temperature;BMP_pressure;BME280_temperature;BME280_humidity;BME280_pressure;Samples;Min_cycle;Max_cycle;Signal;HPM_P1;HPM_P2
2023/01/09 00:00:22;;;;;;;5.82;2.42;;;7.60;99.90;;;;;;5048082;28;20072;-55
2023/01/09 00:02:48;;;;;;;6.75;2.58;;;7.60;99.90;;;;;;5048972;28;20075;-52
2023/01/09 00:05:16;;;;;;;7.40;2.30;;;7.60;99.90;;;;;;5048309;28;20522;-54
2023/01/09 00:07:44;;;;;;;6.72;3.55;;;7.60;99.90;;;;;;5051826;28;20077;-55
2023/01/09 00:10:12;;;;;;;8.40;2.70;;;7.60;99.90;;;;;;5049461;28;20057;-55
2023/01/09 00:12:39;;;;;;;8.60;2.60;;;7.60;99.90;;;;;;5046743;28;20099;-56
2023/01/09 00:15:06;;;;;;;5.20;2.38;;;7.60;99.90;;;;;;5049813;28;20048;-56
2023/01/09 00:17:33;;;;;;;5.80;2.22;;;7.60;99.90;;;;;;5052441;28;20080;-58
2023/01/09 00:20:00;;;;;;;8.07;2.70;;;7.70;99.90;;;;;;5050702;28;20065;-59
2023/01/09 00:22:27;;;;;;;9.80;2.63;;;7.70;99.90;;;;;;5050729;28;20071;-61
2023/01/09 00:24:55;;;;;;;7.72;2.35;;;7.70;99.90;;;;;;5043643;28;20053;-59
2023/01/09 00:27:22;;;;;;;11.40;2.83;;;7.70;99.90;;;;;;5045443;28;20052;-50
2023/01/09 00:29:49;;;;;;;8.00;2.85;;;7.70;99.90;;;;;;5049797;28;20049;-47
2023/01/09 00:32:16;;;;;;;9.85;2.63;;;7.60;99.90;;;;;;5064735;28;20053;-50
2023/01/09 00:34:42;;;;;;;6.43;2.65;;;7.60;99.90;;;;;;5070078;28;20083;-53
2023/01/09 00:37:11;;;;;;;7.97;1.90;;;7.60;99.90;;;;;;5071093;28;20048;-47
2023/01/09 00:39:38;;;;;;;6.25;2.03;;;7.60;99.90;;;;;;5074422;28;20041;-58
2023/01/09 00:42:07;;;;;;;4.43;1.95;;;7.60;99.90;;;;;;5071943;28;20084;-60
2023/01/09 00:44:34;;;;;;;4.80;1.73;;;7.60;99.90;;;;;;5055694;28;20079;-60
2023/01/09 00:47:06;;;;;;;5.32;1.55;;;7.60;99.90;;;;;;5056180;28;20060;-59
2023/01/09 00:49:34;;;;;;;3.20;1.40;;;7.50;99.90;;;;;;5073530;28;20554;-58
2023/01/09 00:52:01;;;;;;;4.95;1.58;;;7.50;99.90;;;;;;5072486;28;20511;-57
2023/01/09 00:54:27;;;;;;;4.47;1.20;;;7.50;99.90;;;;;;5073094;28;20119;-57
2023/01/09 00:56:54;;;;;;;4.15;1.00;;;7.50;99.90;;;;;;5053615;28;20053;-56
2023/01/09 00:59:22;;;;;;;3.45;1.20;;;7.40;99.90;;;;;;5053735;28;20080;-55
2023/01/09 01:01:49;;;;;;;4.60;1.30;;;7.40;99.90;;;;;;5072564;28;20492;-54
2023/01/09 01:09:45;;;;;;;2.47;0.80;;;7.40;99.90;;;;;;5053495;28;20080;-51
2023/01/09 01:12:11;;;;;;;3.65;0.90;;;7.30;99.90;;;;;;5052866;28;20492;-51
2023/01/09 01:14:39;;;;;;;2.22;1.02;;;7.30;99.90;;;;;;5056049;28;20044;-53
2023/01/09 01:17:06;;;;;;;4.88;0.85;;;7.30;99.90;;;;;;5053882;28;20127;-53
2023/01/09 01:19:33;;;;;;;0.93;0.70;;;7.30;99.90;;;;;;5073860;28;20143;-54
2023/01/09 01:22:00;;;;;;;1.52;0.70;;;7.30;99.90;;;;;;5054360;28;20358;-51
2023/01/09 01:24:27;;;;;;;3.80;1.10;;;7.20;99.90;;;;;;5073787;28;20140;-55
2023/01/09 01:26:54;;;;;;;2.25;0.80;;;7.20;99.90;;;;;;5071004;28;20143;-55
2023/01/09 01:29:21;;;;;;;3.22;0.63;;;7.20;99.90;;;;;;5073785;28;20488;-55
2023/01/09 01:31:49;;;;;;;2.22;0.80;;;7.10;99.90;;;;;;5055680;28;20099;-54
2023/01/09 01:34:15;;;;;;;1.50;1.10;;;7.10;99.90;;;;;;5071536;28;20086;-49
2023/01/09 01:36:42;;;;;;;3.25;1.05;;;7.10;99.90;;;;;;5055754;28;20135;-52
2023/01/09 01:39:09;;;;;;;2.08;0.93;;;7.10;99.90;;;;;;5073067;28;20049;-53
2023/01/09 01:41:37;;;;;;;2.20;1.00;;;7.00;99.90;;;;;;5074867;28;20044;-54
2023/01/09 01:44:05;;;;;;;3.97;1.00;;;7.00;99.90;;;;;;5054348;28;20134;-55
2023/01/09 01:46:33;;;;;;;4.97;1.60;;;7.00;99.90;;;;;;5055378;28;20094;-54
2023/01/09 01:49:04;;;;;;;3.40;1.40;;;7.00;99.90;;;;;;5073915;28;20048;-54
2023/01/09 01:51:31;;;;;;;4.47;1.70;;;7.00;99.90;;;;;;5074604;28;20125;-52
2023/01/09 01:53:59;;;;;;;3.65;1.17;;;7.00;99.90;;;;;;5055635;28;20127;-53
2023/01/09 01:56:28;;;;;;;5.45;1.65;;;7.00;99.90;;;;;;5062660;28;20499;-55
2023/01/09 01:58:55;;;;;;;9.02;1.80;;;7.00;99.90;;;;;;5072448;28;20092;-56
2023/01/09 02:01:22;;;;;;;6.07;1.88;;;7.00;99.90;;;;;;5053651;28;20102;-54
2023/01/09 02:03:49;;;;;;;4.55;1.60;;;7.00;99.90;;;;;;5073132;28;20041;-53
2023/01/09 02:06:17;;;;;;;6.50;1.70;;;7.00;99.90;;;;;;5054744;28;20048;-55
2023/01/09 02:08:44;;;;;;;4.72;1.85;;;7.00;99.90;;;;;;5052545;28;20425;-47
2023/01/09 02:11:13;;;;;;;7.63;2.25;;;7.00;99.90;;;;;;5072279;28;20076;-56
2023/01/09 02:13:40;;;;;;;5.68;2.00;;;6.90;99.90;;;;;;5054237;28;20045;-55
2023/01/09 02:16:15;;;;;;;4.07;2.08;;;6.90;99.90;;;;;;5054847;28;20094;-55
2023/01/09 02:18:46;;;;;;;6.10;2.20;;;7.00;99.90;;;;;;5073134;28;20132;-55
2023/01/09 02:21:18;;;;;;;5.47;2.00;;;6.90;99.90;;;;;;5055037;28;20071;-54
2023/01/09 02:24:05;;;;;;;;;;;7.00;99.90;;;;;;5073113;28;20056;-54
2023/01/09 02:26:42;;;;;;;4.60;1.90;;;6.90;99.90;;;;;;5029748;28;19992;-56
2023/01/09 02:29:41;;;;;;;9.45;2.17;;;6.90;99.90;;;;;;5071847;28;20131;-56
2023/01/09 02:32:11;;;;;;;7.07;2.30;;;6.90;99.90;;;;;;5067190;28;20088;-56
2023/01/09 02:34:42;;;;;;;4.93;2.20;;;6.80;99.90;;;;;;5053541;28;20071;-56
2023/01/09 02:37:11;;;;;;;9.07;2.30;;;6.80;99.90;;;;;;5072908;28;20098;-55
2023/01/09 02:39:42;;;;;;;8.77;2.30;;;6.80;99.90;;;;;;5057062;28;20048;-52
2023/01/09 02:42:10;;;;;;;8.48;2.80;;;6.80;99.90;;;;;;5071244;28;20139;-55
2023/01/09 02:44:37;;;;;;;6.10;2.10;;;6.80;99.90;;;;;;5068035;28;20452;-53
2023/01/09 02:47:05;;;;;;;8.95;2.33;;;6.70;99.90;;;;;;5054660;28;20076;-55
2023/01/09 02:49:34;;;;;;;6.53;2.50;;;6.70;99.90;;;;;;5071341;28;20052;-53
2023/01/09 02:52:07;;;;;;;8.98;2.20;;;6.70;99.90;;;;;;5061116;28;20048;-55
2023/01/09 02:54:39;;;;;;;10.63;2.50;;;6.60;99.90;;;;;;5053355;28;20132;-55
2023/01/09 02:57:13;;;;;;;6.65;2.38;;;6.60;99.90;;;;;;5053828;28;20083;-55
2023/01/09 02:59:45;;;;;;;6.47;2.40;;;6.60;99.90;;;;;;5055076;28;20052;-52
2023/01/09 03:02:33;;;;;;;7.70;2.50;;;6.60;99.90;;;;;;5071848;28;20083;-53
2023/01/09 03:05:06;;;;;;;7.18;2.65;;;6.50;99.90;;;;;;5071531;28;20072;-53
2023/01/09 03:07:34;;;;;;;10.70;2.65;;;6.50;99.90;;;;;;5054736;28;20052;-53
2023/01/09 03:10:05;;;;;;;7.05;2.83;;;6.50;99.90;;;;;;5071650;28;20131;-53
2023/01/09 03:12:32;;;;;;;7.95;2.80;;;6.40;99.90;;;;;;5072308;28;20093;-54
2023/01/09 03:15:00;;;;;;;10.00;3.38;;;6.40;99.90;;;;;;5053976;28;20053;-53
2023/01/09 03:17:29;;;;;;;6.10;2.70;;;6.40;99.90;;;;;;5071326;28;20080;-56
2023/01/09 03:19:56;;;;;;;6.40;3.00;;;6.30;99.90;;;;;;5071666;28;20078;-52
2023/01/09 03:22:24;;;;;;;5.78;2.53;;;6.30;99.90;;;;;;5071262;28;20098;-55
2023/01/09 03:24:50;;;;;;;7.90;2.67;;;6.20;99.90;;;;;;5054349;28;20084;-56
2023/01/09 03:27:17;;;;;;;7.30;2.90;;;6.20;99.90;;;;;;5070425;28;20051;-54
2023/01/09 03:29:44;;;;;;;6.50;3.00;;;6.20;99.90;;;;;;5072886;28;20098;-55
2023/01/09 03:32:11;;;;;;;14.68;3.50;;;6.20;99.90;;;;;;5054506;28;20056;-54
2023/01/09 03:34:38;;;;;;;10.43;3.65;;;6.20;99.90;;;;;;5070886;28;20094;-56
2023/01/09 03:37:05;;;;;;;10.57;3.58;;;6.10;99.90;;;;;;5072096;28;20098;-57
2023/01/09 03:39:33;;;;;;;10.50;2.78;;;6.10;99.90;;;;;;5060751;28;20056;-54
2023/01/09 03:42:00;;;;;;;13.50;3.10;;;6.10;99.90;;;;;;5053257;28;20092;-52
2023/01/09 03:44:27;;;;;;;9.25;3.10;;;6.10;99.90;;;;;;5072013;28;20041;-56
2023/01/09 03:46:53;;;;;;;7.13;3.20;;;6.00;99.90;;;;;;5071159;28;20052;-50
2023/01/09 03:49:21;;;;;;;10.02;3.30;;;6.00;99.90;;;;;;5072257;28;20508;-52
2023/01/09 03:51:48;;;;;;;11.15;3.45;;;6.00;99.90;;;;;;5070922;28;20051;-52
2023/01/09 03:54:14;;;;;;;9.82;3.05;;;5.90;99.90;;;;;;5053926;28;20072;-54
2023/01/09 03:56:42;;;;;;;13.60;3.65;;;5.90;99.90;;;;;;5071826;28;20087;-56
2023/01/09 03:59:09;;;;;;;16.98;3.72;;;5.90;99.90;;;;;;5052157;28;20091;-55
2023/01/09 04:01:36;;;;;;;12.52;3.97;;;5.80;99.90;;;;;;5070777;28;20048;-49
2023/01/09 04:04:03;;;;;;;13.02;3.80;;;5.80;99.90;;;;;;5071706;28;20106;-55
2023/01/09 04:06:30;;;;;;;9.70;3.55;;;5.80;99.90;;;;;;5054018;28;20048;-53
2023/01/09 04:08:56;;;;;;;8.63;3.42;;;5.80;99.90;;;;;;5051502;28;20111;-54
2023/01/09 04:11:23;;;;;;;9.60;3.53;;;5.80;99.90;;;;;;5056623;28;20106;-55
2023/01/09 04:13:51;;;;;;;10.07;4.30;;;5.70;99.90;;;;;;5075762;28;20492;-54
2023/01/09 04:16:18;;;;;;;7.63;3.50;;;5.70;99.90;;;;;;5056534;28;20083;-51
2023/01/09 04:18:45;;;;;;;13.35;4.07;;;5.70;99.90;;;;;;5075709;28;20091;-54
2023/01/09 04:21:12;;;;;;;10.30;4.13;;;5.60;99.90;;;;;;5064540;28;20044;-53
2023/01/09 04:23:38;;;;;;;11.57;4.82;;;5.60;99.90;;;;;;5074955;28;20159;-53
2023/01/09 04:26:06;;;;;;;13.32;5.32;;;5.60;99.90;;;;;;5072768;28;20080;-56
2023/01/09 04:28:33;;;;;;;14.32;5.63;;;5.50;99.90;;;;;;5055507;28;20052;-54
2023/01/09 04:31:02;;;;;;;12.20;5.68;;;5.50;99.90;;;;;;5056815;28;20052;-55
2023/01/09 04:33:29;;;;;;;14.27;7.00;;;5.50;99.90;;;;;;5074927;28;20063;-56
2023/01/09 04:35:55;;;;;;;13.55;6.57;;;5.50;99.90;;;;;;5074893;28;20090;-56
2023/01/09 04:38:22;;;;;;;13.25;6.72;;;5.50;99.90;;;;;;5056904;28;20087;-57
2023/01/09 04:40:49;;;;;;;15.48;7.97;;;5.50;99.90;;;;;;5054434;28;20102;-56
2023/01/09 04:43:16;;;;;;;12.73;7.45;;;5.50;99.90;;;;;;5041303;28;20057;-55
2023/01/09 04:45:43;;;;;;;17.08;8.95;;;5.40;99.90;;;;;;5055337;28;20048;-51
2023/01/09 04:48:11;;;;;;;18.30;9.60;;;5.40;99.90;;;;;;5061212;28;20135;-54
2023/01/09 04:50:38;;;;;;;15.88;9.30;;;5.40;99.90;;;;;;5067729;28;20458;-46
2023/01/09 04:53:05;;;;;;;18.88;10.63;;;5.40;99.90;;;;;;5072151;28;20165;-56
2023/01/09 04:55:32;;;;;;;14.88;9.82;;;5.40;99.90;;;;;;5057555;28;20048;-58
2023/01/09 04:57:59;;;;;;;19.33;12.20;;;5.30;99.90;;;;;;5054675;28;20052;-52
2023/01/09 05:00:26;;;;;;;18.73;11.52;;;5.30;99.90;;;;;;5055525;28;20102;-52
2023/01/09 05:02:52;;;;;;;16.15;11.43;;;5.30;99.90;;;;;;5072883;28;20080;-54
2023/01/09 05:05:20;;;;;;;23.17;12.90;;;5.30;99.90;;;;;;5055740;28;20167;-55
2023/01/09 05:07:47;;;;;;;20.70;13.40;;;5.30;99.90;;;;;;5075324;28;20076;-54
2023/01/09 05:10:14;;;;;;;27.45;13.80;;;5.30;99.90;;;;;;5073515;28;20084;-56
2023/01/09 05:12:41;;;;;;;21.48;13.80;;;5.30;99.90;;;;;;5057515;28;20087;-48
2023/01/09 05:15:08;;;;;;;20.95;13.90;;;5.20;99.90;;;;;;5071708;28;20049;-56
2023/01/09 05:17:35;;;;;;;27.75;14.90;;;5.20;99.90;;;;;;5074121;28;20094;-56
2023/01/09 05:20:02;;;;;;;27.88;16.17;;;5.30;99.90;;;;;;5074599;28;20083;-52
2023/01/09 05:22:30;;;;;;;24.75;15.90;;;5.20;99.90;;;;;;5057164;28;20484;-54
2023/01/09 05:24:57;;;;;;;23.98;15.88;;;5.20;99.90;;;;;;5075056;28;20083;-54
2023/01/09 05:27:24;;;;;;;26.67;16.02;;;5.20;99.90;;;;;;5072245;28;20080;-52
2023/01/09 05:29:50;;;;;;;21.85;13.98;;;5.20;99.90;;;;;;5068218;28;20477;-51
2023/01/09 05:32:17;;;;;;;27.23;15.57;;;5.20;99.90;;;;;;5045237;28;20580;-55
2023/01/09 05:34:44;;;;;;;29.95;15.52;;;5.10;99.90;;;;;;5074289;28;20060;-55
2023/01/09 05:37:11;;;;;;;30.38;15.73;;;5.20;99.90;;;;;;5075004;28;20092;-53
2023/01/09 05:39:39;;;;;;;24.77;15.18;;;5.20;99.90;;;;;;5072290;28;20087;-55
2023/01/09 05:42:06;;;;;;;22.25;14.75;;;5.10;99.90;;;;;;5055184;28;20495;-55
2023/01/09 05:44:32;;;;;;;24.80;15.70;;;5.20;99.90;;;;;;5054884;28;20106;-54
2023/01/09 05:46:59;;;;;;;25.75;14.80;;;5.20;99.90;;;;;;5055741;28;20547;-55
2023/01/09 05:49:26;;;;;;;24.63;15.55;;;5.10;99.90;;;;;;5055237;28;20465;-54
2023/01/09 05:51:53;;;;;;;26.98;15.35;;;5.10;99.90;;;;;;5057091;28;20134;-54
2023/01/09 05:54:19;;;;;;;27.42;15.52;;;5.10;99.90;;;;;;5073245;28;20098;-56
2023/01/09 05:56:48;;;;;;;36.60;15.38;;;5.10;99.90;;;;;;5074399;28;20457;-57
2023/01/09 05:59:14;;;;;;;25.90;15.25;;;5.10;99.90;;;;;;5052837;28;20106;-55
2023/01/09 06:01:41;;;;;;;24.70;14.85;;;5.20;99.90;;;;;;5048989;28;20080;-49
2023/01/09 06:04:08;;;;;;;30.50;15.65;;;5.30;99.90;;;;;;5067455;28;20075;-53
2023/01/09 06:06:38;;;;;;;26.52;13.65;;;5.30;99.90;;;;;;5074395;28;20052;-54
2023/01/09 06:09:05;;;;;;;24.40;14.82;;;5.20;99.90;;;;;;5072786;28;20454;-55
2023/01/09 06:11:34;;;;;;;27.15;15.45;;;5.30;99.90;;;;;;5055041;28;20048;-54
2023/01/09 06:14:02;;;;;;;32.92;14.48;;;5.30;99.90;;;;;;5053812;28;20049;-53
2023/01/09 06:16:29;;;;;;;26.10;15.05;;;5.30;99.90;;;;;;5056251;28;20072;-56
2023/01/09 06:18:56;;;;;;;27.75;15.38;;;5.30;99.90;;;;;;5051994;28;20142;-51
2023/01/09 06:21:22;;;;;;;25.13;14.40;;;5.40;99.90;;;;;;5066437;28;20076;-56
2023/01/09 06:23:49;;;;;;;24.10;13.95;;;5.40;99.90;;;;;;5068218;28;20497;-54
2023/01/09 06:26:16;;;;;;;23.23;13.75;;;5.40;99.90;;;;;;5072495;28;20081;-55
2023/01/09 06:28:43;;;;;;;20.05;13.20;;;5.40;99.90;;;;;;5070712;28;20131;-57
2023/01/09 06:31:12;;;;;;;23.85;13.15;;;5.40;99.90;;;;;;5054273;28;20131;-51
2023/01/09 06:33:38;;;;;;;24.42;12.82;;;5.40;99.90;;;;;;5070676;28;20055;-55
2023/01/09 06:36:06;;;;;;;23.48;12.07;;;5.40;99.90;;;;;;5051002;28;20131;-57
2023/01/09 06:38:33;;;;;;;21.63;12.32;;;5.40;99.90;;;;;;5071606;28;20102;-56
2023/01/09 06:40:59;;;;;;;23.90;10.63;;;5.40;99.90;;;;;;5049042;28;20132;-49
2023/01/09 06:43:26;;;;;;;25.42;11.48;;;5.40;99.90;;;;;;5063391;28;20049;-54
2023/01/09 06:45:53;;;;;;;19.42;11.07;;;5.40;99.90;;;;;;5051547;28;20079;-54
2023/01/09 06:48:23;;;;;;;20.42;10.35;;;5.40;99.90;;;;;;5050189;28;20099;-54
2023/01/09 06:50:50;;;;;;;25.55;13.18;;;5.40;99.90;;;;;;5069389;28;20053;-54
2023/01/09 06:53:17;;;;;;;29.52;15.32;;;5.40;99.90;;;;;;5070124;28;20452;-55
2023/01/09 06:55:44;;;;;;;24.83;11.52;;;5.30;99.90;;;;;;5054614;28;20128;-52
2023/01/09 06:58:10;;;;;;;23.80;12.02;;;5.30;99.90;;;;;;5069370;28;20095;-56
2023/01/09 07:00:37;;;;;;;20.55;11.05;;;5.30;99.90;;;;;;5072465;28;20132;-54
2023/01/09 07:03:04;;;;;;;17.98;10.13;;;5.30;99.90;;;;;;5055182;28;20079;-54
2023/01/09 07:05:33;;;;;;;21.38;10.23;;;5.30;99.90;;;;;;5072173;28;20106;-56
2023/01/09 07:07:59;;;;;;;17.05;9.40;;;5.30;99.90;;;;;;5055451;28;20084;-50
2023/01/09 07:10:26;;;;;;;17.70;8.93;;;5.30;99.90;;;;;;5073226;28;20128;-56
2023/01/09 07:12:53;;;;;;;17.33;9.07;;;5.30;99.90;;;;;;5050932;28;20550;-57
2023/01/09 07:15:20;;;;;;;15.60;8.48;;;5.30;99.90;;;;;;5052898;28;20088;-55
2023/01/09 07:17:48;;;;;;;15.13;8.00;;;5.30;99.90;;;;;;5051842;28;20088;-57
2023/01/09 07:20:16;;;;;;;17.40;8.82;;;5.40;99.90;;;;;;5052038;28;20135;-55
2023/01/09 07:22:45;;;;;;;19.33;8.48;;;5.40;99.90;;;;;;5053368;28;20052;-57
2023/01/09 07:25:11;;;;;;;15.85;8.35;;;5.30;99.90;;;;;;5055229;28;20060;-54
2023/01/09 07:27:38;;;;;;;13.93;8.00;;;5.40;99.90;;;;;;5072266;28;20191;-54
2023/01/09 07:30:06;;;;;;;18.55;8.15;;;5.50;99.90;;;;;;5053105;28;20131;-55
2023/01/09 07:32:33;;;;;;;14.02;7.25;;;5.40;99.90;;;;;;5054452;28;20067;-56
2023/01/09 07:35:00;;;;;;;17.35;7.50;;;5.40;99.90;;;;;;5055185;28;20052;-54
2023/01/09 07:37:27;;;;;;;13.55;6.95;;;5.40;99.90;;;;;;5054854;28;20060;-53
2023/01/09 07:39:55;;;;;;;15.48;7.43;;;5.50;99.90;;;;;;5072635;28;20091;-54
2023/01/09 07:42:22;;;;;;;15.82;7.50;;;5.40;99.90;;;;;;5054172;28;20101;-39
2023/01/09 07:44:48;;;;;;;16.25;7.93;;;5.50;99.90;;;;;;5052699;28;20088;-56
2023/01/09 07:47:15;;;;;;;13.70;6.38;;;5.50;99.90;;;;;;5050496;28;20144;-56
2023/01/09 07:49:42;;;;;;;14.05;7.10;;;5.50;99.90;;;;;;5051448;28;20049;-55
2023/01/09 07:52:09;;;;;;;14.98;6.68;;;5.50;99.90;;;;;;5052615;28;20095;-55
2023/01/09 07:54:35;;;;;;;14.10;6.38;;;5.50;99.90;;;;;;5052510;28;20052;-54
2023/01/09 07:57:04;;;;;;;12.57;6.57;;;5.50;99.90;;;;;;5051714;28;20143;-55
2023/01/09 07:59:31;;;;;;;14.25;7.00;;;5.50;99.90;;;;;;5054758;28;20053;-56
2023/01/09 08:01:58;;;;;;;16.10;6.97;;;5.50;99.90;;;;;;5071919;28;20055;-56
2023/01/09 08:04:25;;;;;;;16.42;6.82;;;5.50;99.90;;;;;;5054941;28;20488;-56
2023/01/09 08:06:51;;;;;;;14.13;6.40;;;5.50;99.90;;;;;;5054777;28;20076;-56
2023/01/09 08:09:18;;;;;;;14.43;6.28;;;5.50;99.90;;;;;;5054533;28;20084;-53
2023/01/09 08:11:45;;;;;;;16.40;6.68;;;5.50;99.90;;;;;;5057865;28;20064;-55
2023/01/09 08:14:13;;;;;;;11.27;6.15;;;5.50;99.90;;;;;;5047919;28;20075;-54
2023/01/09 08:16:40;;;;;;;17.38;6.53;;;5.50;99.90;;;;;;5072568;28;20485;-56
2023/01/09 08:19:07;;;;;;;14.60;6.10;;;5.60;99.90;;;;;;5051264;28;20081;-55
2023/01/09 08:21:34;;;;;;;13.93;5.78;;;5.50;99.90;;;;;;5051338;28;20128;-53
2023/01/09 08:24:01;;;;;;;13.38;5.90;;;5.50;99.90;;;;;;5057237;28;20075;-55
2023/01/09 08:26:27;;;;;;;17.67;5.85;;;5.50;99.90;;;;;;5054284;28;20095;-48
2023/01/09 08:28:54;;;;;;;15.63;5.55;;;5.60;99.90;;;;;;5068487;28;20110;-54
2023/01/09 08:31:22;;;;;;;18.92;6.32;;;5.60;99.90;;;;;;5054379;28;20053;-54
2023/01/09 08:33:49;;;;;;;11.88;5.22;;;5.60;99.90;;;;;;5054223;28;20088;-57
2023/01/09 08:36:16;;;;;;;14.57;5.30;;;5.60;99.90;;;;;;5072029;28;20052;-58
2023/01/09 08:38:43;;;;;;;14.88;5.70;;;5.70;99.90;;;;;;5071035;28;20091;-58
2023/01/09 08:49:24;;;;;;;15.45;5.72;;;5.80;99.90;;;;;;5054098;28;20052;-56
2023/01/09 08:51:50;;;;;;;15.48;5.68;;;5.80;99.90;;;;;;5072232;28;20090;-57
2023/01/09 08:54:17;;;;;;;16.33;6.30;;;5.80;99.90;;;;;;5052314;28;20083;-57
2023/01/09 08:56:44;;;;;;;17.55;5.80;;;5.80;99.90;;;;;;5053419;28;20055;-57
2023/01/09 08:59:11;;;;;;;18.45;5.68;;;5.90;99.90;;;;;;5075852;28;20090;-52
2023/01/09 09:01:39;;;;;;;16.75;5.90;;;5.90;99.90;;;;;;5075560;28;20083;-58
2023/01/09 09:04:06;;;;;;;18.20;6.15;;;5.90;99.90;;;;;;5075439;28;20048;-56
2023/01/09 09:06:33;;;;;;;12.77;5.10;;;5.90;99.90;;;;;;5058196;28;20072;-58
2023/01/09 09:09:02;;;;;;;14.02;5.60;;;6.00;99.90;;;;;;5056937;28;20101;-59
2023/01/09 09:11:29;;;;;;;16.75;5.80;;;6.00;99.90;;;;;;5054804;28;20059;-58
2023/01/09 09:13:56;;;;;;;15.25;5.88;;;6.10;99.90;;;;;;5057782;28;20145;-49
2023/01/09 09:16:23;;;;;;;15.52;5.28;;;6.10;99.90;;;;;;5075371;28;20475;-57
2023/01/09 09:18:51;;;;;;;13.68;5.65;;;6.10;99.90;;;;;;5075239;28;20076;-57
2023/01/09 09:21:19;;;;;;;14.00;4.95;;;6.20;99.90;;;;;;5057862;28;20121;-53
2023/01/09 09:23:45;;;;;;;11.57;5.07;;;6.20;99.90;;;;;;5074112;28;20056;-55
2023/01/09 09:26:12;;;;;;;15.35;4.90;;;6.20;99.90;;;;;;5072599;28;20087;-55
2023/01/09 09:28:39;;;;;;;17.30;5.38;;;6.20;99.90;;;;;;5057124;28;20536;-56
2023/01/09 09:31:06;;;;;;;13.32;4.95;;;6.20;99.90;;;;;;5074903;28;20139;-55
2023/01/09 09:33:33;;;;;;;12.75;4.88;;;6.30;99.90;;;;;;5073278;28;20109;-52
2023/01/09 09:36:01;;;;;;;15.75;5.53;;;6.30;99.90;;;;;;5073497;28;20056;-55
2023/01/09 09:38:28;;;;;;;14.90;5.32;;;6.30;99.90;;;;;;5073933;28;20200;-50
2023/01/09 09:46:52;;;;;;;17.52;5.47;;;6.40;99.90;;;;;;5057143;28;20052;-56
2023/01/09 09:49:21;;;;;;;18.85;5.75;;;6.40;99.90;;;;;;5073650;28;20049;-56
2023/01/09 09:51:57;;;;;;;11.63;4.65;;;6.40;99.90;;;;;;5054768;28;20105;-56
2023/01/09 09:54:26;;;;;;;14.63;5.35;;;6.50;99.90;;;;;;5052817;28;20045;-54
2023/01/09 09:56:54;;;;;;;15.60;4.78;;;6.50;99.90;;;;;;5054251;28;20552;-55
2023/01/09 09:59:22;;;;;;;19.75;5.28;;;6.50;99.90;;;;;;5054458;28;20474;-55
2023/01/09 10:01:51;;;;;;;12.27;4.80;;;6.50;99.90;;;;;;5052991;28;20113;-55
2023/01/09 10:04:18;;;;;;;14.25;4.35;;;6.60;99.90;;;;;;5054289;28;20507;-54
2023/01/09 10:06:46;;;;;;;14.75;5.10;;;6.60;99.90;;;;;;5054855;28;20143;-55
2023/01/09 10:09:17;;;;;;;13.43;4.70;;;6.60;99.90;;;;;;5073328;28;20083;-55
2023/01/09 10:11:46;;;;;;;17.85;4.45;;;6.60;99.90;;;;;;5073659;28;20075;-57
2023/01/09 10:14:13;;;;;;;20.15;4.65;;;6.60;99.90;;;;;;5073541;28;20449;-56
2023/01/09 10:17:03;;;;;;;17.58;4.80;;;6.60;99.90;;;;;;5074116;28;20044;-55
2023/01/09 10:19:37;;;;;;;17.13;6.57;;;6.70;99.90;;;;;;5055580;28;20045;-56
2023/01/09 10:22:09;;;;;;;17.08;4.60;;;6.70;99.90;;;;;;5054199;28;20140;-56
2023/01/09 10:24:46;;;;;;;12.90;5.03;;;6.70;99.90;;;;;;5074031;28;20496;-57
2023/01/09 10:27:17;;;;;;;13.55;4.57;;;6.70;99.90;;;;;;5073976;28;20094;-55
2023/01/09 10:30:03;;;;;;;18.08;7.80;;;6.70;99.90;;;;;;5073356;28;20048;-56
2023/01/09 10:32:36;;;;;;;14.48;6.18;;;6.70;99.90;;;;;;5069983;28;20114;-56
2023/01/09 10:35:22;;;;;;;13.95;5.78;;;6.70;99.90;;;;;;5056304;28;20084;-57
2023/01/09 10:37:52;;;;;;;19.30;5.28;;;6.80;99.90;;;;;;5055862;28;20084;-55
2023/01/09 10:40:21;;;;;;;16.92;5.50;;;6.80;99.90;;;;;;5073732;28;20048;-56
2023/01/09 10:42:50;;;;;;;13.80;5.75;;;6.80;99.90;;;;;;5073478;28;20052;-55
2023/01/09 10:45:18;;;;;;;9.75;5.00;;;6.90;99.90;;;;;;5072131;28;20577;-55
2023/01/09 10:47:45;;;;;;;18.10;6.25;;;6.90;99.90;;;;;;5072643;28;20048;-56
2023/01/09 10:50:19;;;;;;;13.85;6.55;;;6.90;99.90;;;;;;5052474;28;20076;-56
2023/01/09 10:52:46;;;;;;;16.63;8.85;;;6.90;99.90;;;;;;5053486;28;20049;-55
2023/01/09 10:55:18;;;;;;;19.02;7.75;;;6.90;99.90;;;;;;5053107;28;20052;-56
2023/01/09 10:57:46;;;;;;;;;;;7.00;99.90;;;;;;5055018;28;20092;-53
2023/01/09 11:00:18;;;;;;;10.75;5.97;;;7.00;99.90;;;;;;5073559;28;20316;-54
2023/01/09 11:02:45;;;;;;;11.70;5.03;;;7.10;99.90;;;;;;5071774;28;20052;-56
2023/01/09 11:05:13;;;;;;;9.80;5.03;;;7.10;99.90;;;;;;5073003;28;20504;-54
2023/01/09 11:07:40;;;;;;;11.55;4.88;;;7.10;99.90;;;;;;5055403;28;20131;-55
2023/01/09 11:10:08;;;;;;;12.27;6.60;;;7.10;99.90;;;;;;5055137;28;20143;-51
2023/01/09 11:12:36;;;;;;;12.77;5.60;;;7.10;99.90;;;;;;5072444;28;20106;-50
2023/01/09 11:15:27;;;;;;;13.95;5.65;;;7.20;99.90;;;;;;5073180;28;20052;-56
2023/01/09 11:17:54;;;;;;;15.63;5.20;;;7.10;99.90;;;;;;5053994;28;20181;-55
2023/01/09 11:20:24;;;;;;;15.70;6.78;;;7.10;99.90;;;;;;5054643;28;20698;-56
2023/01/09 11:22:52;;;;;;;9.35;5.63;;;7.10;99.90;;;;;;5055110;28;20476;-56
2023/01/09 11:25:19;;;;;;;11.40;6.05;;;7.20;99.90;;;;;;5055374;28;20052;-55
2023/01/09 11:28:03;;;;;;;10.25;6.20;;;7.20;99.90;;;;;;5072151;28;20480;-56
2023/01/09 11:30:32;;;;;;;13.05;6.20;;;7.20;99.90;;;;;;5072637;28;20045;-56
2023/01/09 11:32:59;;;;;;;10.75;6.40;;;7.20;99.90;;;;;;5072677;28;20131;-55
2023/01/09 11:35:29;;;;;;;14.52;6.90;;;7.20;99.90;;;;;;5071473;28;20457;-56
2023/01/09 11:38:07;;;;;;;14.13;6.25;;;7.20;99.90;;;;;;5072807;28;20064;-53
2023/01/09 11:40:46;;;;;;;15.27;7.75;;;7.20;99.90;;;;;;5072698;28;20470;-55
2023/01/09 11:43:16;;;;;;;11.32;7.13;;;7.30;99.90;;;;;;5054238;28;20052;-56
2023/01/09 11:45:46;;;;;;;15.27;7.90;;;7.30;99.90;;;;;;5054806;28;20133;-54
2023/01/09 11:48:17;;;;;;;18.83;7.85;;;7.30;99.90;;;;;;5072317;28;20591;-55
2023/01/09 11:50:55;;;;;;;13.52;7.82;;;7.30;99.90;;;;;;5055001;28;20131;-54
2023/01/09 11:53:22;;;;;;;18.25;8.40;;;7.30;99.90;;;;;;5053491;28;20381;-55
2023/01/09 11:56:00;;;;;;;17.73;8.98;;;7.30;99.90;;;;;;5052432;28;20049;-56
2023/01/09 11:58:29;;;;;;;16.30;8.48;;;7.30;99.90;;;;;;5047906;28;20051;-55
2023/01/09 12:01:03;;;;;;;23.42;8.88;;;7.30;99.90;;;;;;5054800;28;20074;-46
2023/01/09 12:03:39;;;;;;;17.33;8.48;;;7.30;99.90;;;;;;5072233;28;20082;-54
2023/01/09 12:06:09;;;;;;;18.80;9.65;;;7.40;99.90;;;;;;5072636;28;20087;-55
2023/01/09 12:08:39;;;;;;;17.98;8.77;;;7.40;99.90;;;;;;5070850;28;20473;-53
2023/01/09 12:11:16;;;;;;;20.48;8.98;;;7.50;99.90;;;;;;5072206;28;20074;-54
2023/01/09 12:13:59;;;;;;;16.48;9.55;;;7.50;99.90;;;;;;5052501;28;20102;-55
2023/01/09 12:16:31;;;;;;;19.33;10.05;;;7.50;99.90;;;;;;5072213;28;20111;-53
2023/01/09 12:19:07;;;;;;;18.25;9.88;;;7.50;99.90;;;;;;5067922;28;20051;-54
2023/01/09 12:21:34;;;;;;;18.30;10.13;;;7.60;99.90;;;;;;5061569;28;20103;-54
2023/01/09 12:24:39;;;;;;;18.65;10.05;;;7.60;99.90;;;;;;5049939;28;20046;-54
2023/01/09 12:27:13;;;;;;;14.75;9.35;;;7.60;99.90;;;;;;5053712;28;20076;-51
2023/01/09 12:30:02;;;;;;;17.27;10.27;;;7.60;99.90;;;;;;5053289;28;21711;-55
2023/01/09 12:32:37;;;;;;;17.70;10.60;;;7.60;99.90;;;;;;5073874;28;20518;-55
2023/01/09 12:35:07;;;;;;;23.27;9.10;;;7.60;99.90;;;;;;5074889;28;20053;-53
2023/01/09 12:37:56;;;;;;;13.18;9.38;;;7.60;99.90;;;;;;5076170;28;20149;-55
2023/01/09 12:40:44;;;;;;;18.55;10.35;;;7.60;99.90;;;;;;5053817;28;20081;-55
2023/01/09 12:43:14;;;;;;;18.55;9.90;;;7.70;99.90;;;;;;5055830;28;20131;-54
2023/01/09 12:45:47;;;;;;;17.15;10.25;;;7.70;99.90;;;;;;5060218;28;20641;-54
2023/01/09 12:48:26;;;;;;;17.58;10.25;;;7.70;99.90;;;;;;5058232;28;20048;-54
2023/01/09 12:51:09;;;;;;;18.45;9.80;;;7.70;99.90;;;;;;5075788;28;20053;-53
2023/01/09 12:53:37;;;;;;;17.48;10.13;;;7.70;99.90;;;;;;5056707;28;20496;-54
2023/01/09 12:56:05;;;;;;;16.60;9.57;;;7.70;99.90;;;;;;5075397;28;20088;-55
2023/01/09 12:58:36;;;;;;;17.02;10.43;;;7.70;99.90;;;;;;5075675;28;20455;-54
2023/01/09 13:01:04;;;;;;;15.70;10.30;;;7.70;99.90;;;;;;5074873;28;20056;-54
2023/01/09 13:03:36;;;;;;;18.92;10.43;;;7.70;99.90;;;;;;5074131;28;20080;-54
2023/01/09 13:06:03;;;;;;;15.73;10.60;;;7.70;99.90;;;;;;5075766;28;20106;-55
2023/01/09 13:08:31;;;;;;;17.35;9.73;;;7.80;99.90;;;;;;5057969;28;20098;-54
2023/01/09 13:11:01;;;;;;;15.88;10.32;;;7.70;99.90;;;;;;5075593;28;20056;-53
2023/01/09 13:13:30;;;;;;;17.25;9.75;;;7.80;99.90;;;;;;5074086;28;20286;-53
2023/01/09 13:15:58;;;;;;;21.88;10.98;;;7.80;99.90;;;;;;5057286;28;20102;-50